createdAt,value
2023-04-13T00:00:44.191Z,4.75
2023-04-13T00:03:33.416Z,4.65
2023-04-13T00:06:20.225Z,4.68
2023-04-13T00:09:06.670Z,4.40
2023-04-13T00:11:52.791Z,4.38
2023-04-13T00:14:39.255Z,4.35
2023-04-13T00:17:26.741Z,4.57
2023-04-13T00:20:15.542Z,4.57
2023-04-13T00:23:01.717Z,4.80
2023-04-13T00:25:47.980Z,4.85
2023-04-13T00:28:33.934Z,5.50
2023-04-13T00:31:21.271Z,6.60
2023-04-13T00:34:07.419Z,4.88
2023-04-13T00:36:54.163Z,4.97
2023-04-13T00:39:40.953Z,5.10
2023-04-13T00:42:27.608Z,4.60
2023-04-13T00:45:13.918Z,4.05
2023-04-13T00:48:00.470Z,4.35
2023-04-13T00:50:47.066Z,3.88
2023-04-13T00:53:33.652Z,3.72
2023-04-13T00:56:23.042Z,4.07
2023-04-13T00:59:12.719Z,3.70
2023-04-13T01:01:59.158Z,4.18
2023-04-13T01:04:45.952Z,3.78
2023-04-13T01:08:00.247Z,3.35
2023-04-13T01:11:04.397Z,3.40
2023-04-13T01:14:11.091Z,3.28
2023-04-13T01:20:22.500Z,3.22
2023-04-13T01:23:10.728Z,3.92
2023-04-13T01:25:59.746Z,3.60
2023-04-13T01:28:46.670Z,3.47
2023-04-13T01:31:35.923Z,3.40
2023-04-13T01:34:23.377Z,4.63
2023-04-13T01:37:10.136Z,3.38
2023-04-13T01:39:56.158Z,3.72
2023-04-13T01:42:47.369Z,2.95
2023-04-13T01:45:54.022Z,3.25
2023-04-13T01:48:49.575Z,3.80
2023-04-13T01:51:52.190Z,4.20
2023-04-13T01:54:45.630Z,4.03
2023-04-13T01:57:32.393Z,4.28
2023-04-13T02:00:23.041Z,3.40
2023-04-13T02:03:10.776Z,2.85
2023-04-13T02:05:57.158Z,3.10
2023-04-13T02:08:43.365Z,3.28
2023-04-13T02:11:31.551Z,3.20
2023-04-13T02:14:20.613Z,2.95
2023-04-13T02:17:08.514Z,3.30
2023-04-13T02:19:54.456Z,3.13
2023-04-13T02:22:41.730Z,3.30
2023-04-13T02:25:28.297Z,2.92
2023-04-13T02:28:14.379Z,3.20
2023-04-13T02:31:00.391Z,2.58
2023-04-13T02:33:46.597Z,3.00
2023-04-13T02:36:32.921Z,3.33
2023-04-13T02:39:24.974Z,3.57
2023-04-13T02:42:12.081Z,3.40
2023-04-13T02:44:58.457Z,3.40
2023-04-13T02:47:45.113Z,3.28
2023-04-13T02:50:31.422Z,3.10
2023-04-13T02:53:25.392Z,3.00
2023-04-13T02:56:16.958Z,2.88
2023-04-13T02:59:07.103Z,2.53
2023-04-13T03:01:54.078Z,2.75
2023-04-13T03:04:43.387Z,2.47
2023-04-13T03:07:29.918Z,3.10
2023-04-13T03:10:15.955Z,3.30
2023-04-13T03:13:03.981Z,2.95
2023-04-13T03:15:51.086Z,3.30
2023-04-13T03:18:38.316Z,2.67
2023-04-13T03:21:26.481Z,3.40
2023-04-13T03:24:21.432Z,3.88
2023-04-13T03:27:08.365Z,3.75
2023-04-13T03:29:59.840Z,4.13
2023-04-13T03:32:47.431Z,2.95
2023-04-13T03:35:33.407Z,3.30
2023-04-13T03:38:21.839Z,4.07
2023-04-13T03:41:08.554Z,3.17
2023-04-13T03:43:55.308Z,3.15
2023-04-13T03:46:44.973Z,2.65
2023-04-13T03:49:41.878Z,3.20
2023-04-13T03:52:28.420Z,3.92
2023-04-13T03:55:19.254Z,3.05
2023-04-13T03:58:08.803Z,3.78
2023-04-13T04:00:54.944Z,3.30
2023-04-13T04:03:55.985Z,3.45
2023-04-13T04:06:43.556Z,5.40
2023-04-13T04:09:32.956Z,3.70
2023-04-13T04:12:18.953Z,4.25
2023-04-13T04:15:06.070Z,3.55
2023-04-13T04:17:52.402Z,4.07
2023-04-13T04:20:38.542Z,4.38
2023-04-13T04:23:28.270Z,4.05
2023-04-13T04:26:25.535Z,3.30
2023-04-13T04:29:22.727Z,3.70
2023-04-13T04:32:15.637Z,4.30
2023-04-13T04:35:04.918Z,4.00
2023-04-13T04:37:56.001Z,3.55
2023-04-13T04:40:45.198Z,3.65
2023-04-13T04:43:33.596Z,4.10
2023-04-13T04:46:19.712Z,4.53
2023-04-13T04:49:11.545Z,4.40
2023-04-13T04:51:58.794Z,4.60
2023-04-13T04:54:45.361Z,5.35
2023-04-13T04:57:34.220Z,5.38
2023-04-13T05:00:22.560Z,5.00
2023-04-13T05:03:19.125Z,4.05
2023-04-13T05:06:10.418Z,3.85
2023-04-13T05:08:57.059Z,4.70
2023-04-13T05:11:44.382Z,7.63
2023-04-13T05:14:32.184Z,8.18
2023-04-13T05:17:18.518Z,7.50
2023-04-13T05:20:11.648Z,10.35
2023-04-13T05:23:11.621Z,11.45
2023-04-13T05:26:04.998Z,10.63
2023-04-13T05:28:51.459Z,9.90
2023-04-13T05:31:38.150Z,10.77
2023-04-13T05:34:24.626Z,10.07
2023-04-13T05:37:31.253Z,8.57
2023-04-13T05:40:17.765Z,6.97
2023-04-13T05:43:04.257Z,5.68
2023-04-13T05:45:55.147Z,7.00
2023-04-13T05:48:44.173Z,6.50
2023-04-13T05:51:33.158Z,7.03
2023-04-13T05:54:19.518Z,7.50
2023-04-13T05:57:08.576Z,9.63
2023-04-13T05:59:57.441Z,9.52
2023-04-13T06:02:51.757Z,10.27
2023-04-13T06:05:38.695Z,9.70
2023-04-13T06:08:32.604Z,11.57
2023-04-13T06:11:19.234Z,11.30
2023-04-13T06:14:05.252Z,12.13
2023-04-13T06:16:52.965Z,12.02
2023-04-13T06:19:39.554Z,9.85
2023-04-13T06:22:25.486Z,9.80
2023-04-13T06:25:12.284Z,7.60
2023-04-13T06:28:01.963Z,7.88
2023-04-13T06:30:57.062Z,6.45
2023-04-13T06:33:44.572Z,6.47
2023-04-13T06:36:31.096Z,6.10
2023-04-13T06:39:18.852Z,6.43
2023-04-13T06:42:15.433Z,6.57
2023-04-13T06:45:19.480Z,7.15
2023-04-13T06:48:07.108Z,6.38
2023-04-13T06:50:59.380Z,6.40
2023-04-13T06:53:47.198Z,6.03
2023-04-13T06:56:33.652Z,6.53
2023-04-13T06:59:20.455Z,5.60
2023-04-13T07:02:06.648Z,6.35
2023-04-13T07:04:53.067Z,5.72
2023-04-13T07:07:41.657Z,5.22
2023-04-13T07:10:27.899Z,5.50
2023-04-13T07:13:17.558Z,5.05
2023-04-13T07:16:05.682Z,6.35
2023-04-13T07:18:55.023Z,5.38
2023-04-13T07:21:41.438Z,6.10
2023-04-13T07:24:30.136Z,6.85
2023-04-13T07:27:18.970Z,6.97
2023-04-13T07:30:09.104Z,7.60
2023-04-13T07:33:00.772Z,6.82
2023-04-13T07:35:47.489Z,8.18
2023-04-13T07:38:34.431Z,8.63
2023-04-13T07:41:25.248Z,9.10
2023-04-13T07:44:16.648Z,9.65
2023-04-13T07:47:03.189Z,8.02
2023-04-13T07:49:53.845Z,8.15
2023-04-13T07:52:41.691Z,11.32
2023-04-13T07:55:27.662Z,8.00
2023-04-13T07:58:14.774Z,7.80
2023-04-13T08:01:01.195Z,6.95
2023-04-13T08:03:47.966Z,7.35
2023-04-13T08:06:39.375Z,7.97
2023-04-13T08:09:42.506Z,6.93
2023-04-13T08:12:28.795Z,7.03
2023-04-13T08:15:14.805Z,7.38
2023-04-13T08:18:02.025Z,7.15
2023-04-13T08:20:49.233Z,7.15
2023-04-13T08:23:41.225Z,7.65
2023-04-13T08:26:27.347Z,7.35
2023-04-13T08:29:14.573Z,6.88
2023-04-13T08:32:01.780Z,11.15
2023-04-13T08:34:49.537Z,8.55
2023-04-13T08:37:37.094Z,9.80
2023-04-13T08:40:23.205Z,12.15
2023-04-13T08:43:13.224Z,7.25
2023-04-13T08:45:59.686Z,7.00
2023-04-13T08:48:53.358Z,6.45
2023-04-13T08:51:46.099Z,6.68
2023-04-13T08:54:35.220Z,8.43
2023-04-13T08:57:23.806Z,10.00
2023-04-13T09:00:16.663Z,7.40
2023-04-13T09:03:10.341Z,14.40
2023-04-13T09:06:05.430Z,30.58
2023-04-13T09:08:55.777Z,15.75
2023-04-13T09:11:43.215Z,8.48
2023-04-13T09:14:29.844Z,12.05
2023-04-13T09:17:27.567Z,6.53
2023-04-13T09:20:20.477Z,6.43
2023-04-13T09:23:17.241Z,6.18
2023-04-13T09:26:07.120Z,6.15
2023-04-13T09:28:56.450Z,8.18
2023-04-13T09:31:45.454Z,6.57
2023-04-13T09:34:32.064Z,7.45
2023-04-13T09:37:18.565Z,6.68
2023-04-13T09:40:09.784Z,7.93
2023-04-13T09:42:59.765Z,5.95
2023-04-13T09:45:46.085Z,6.13
2023-04-13T09:48:32.828Z,5.65
2023-04-13T09:51:20.367Z,5.28
2023-04-13T09:54:07.004Z,5.78
2023-04-13T09:56:54.676Z,5.97
2023-04-13T09:59:40.924Z,5.90
2023-04-13T10:02:28.013Z,5.10
2023-04-13T10:05:14.748Z,5.00
2023-04-13T10:08:02.279Z,5.38
2023-04-13T10:10:49.681Z,4.97
2023-04-13T10:13:41.483Z,4.82
2023-04-13T10:16:43.080Z,5.27
2023-04-13T10:19:31.114Z,5.32
2023-04-13T10:22:17.858Z,4.90
2023-04-13T10:25:07.057Z,5.20
2023-04-13T10:28:00.738Z,4.43
2023-04-13T10:30:51.637Z,6.70
2023-04-13T10:33:50.331Z,5.85
2023-04-13T10:36:44.258Z,5.60
2023-04-13T10:39:32.472Z,5.03
2023-04-13T10:42:18.548Z,5.00
2023-04-13T10:45:05.132Z,5.00
2023-04-13T10:47:51.532Z,5.80
2023-04-13T10:50:38.995Z,4.97
2023-04-13T10:53:26.832Z,5.18
2023-04-13T10:56:17.222Z,5.68
2023-04-13T10:59:04.481Z,5.40
2023-04-13T11:01:50.839Z,6.03
2023-04-13T11:04:39.707Z,7.57
2023-04-13T11:07:26.950Z,5.50
2023-04-13T11:10:13.153Z,5.72
2023-04-13T11:12:59.512Z,5.10
2023-04-13T11:15:45.801Z,4.78
2023-04-13T11:18:32.537Z,4.22
2023-04-13T11:21:18.430Z,4.65
2023-04-13T11:24:04.841Z,3.67
2023-04-13T11:26:50.805Z,4.07
2023-04-13T11:29:36.900Z,3.72
2023-04-13T11:32:23.151Z,3.90
2023-04-13T11:35:10.641Z,3.78
2023-04-13T11:37:57.086Z,4.07
2023-04-13T11:40:45.528Z,3.63
2023-04-13T11:43:31.932Z,3.78
2023-04-13T11:46:25.399Z,5.10
2023-04-13T11:49:12.601Z,3.58
2023-04-13T11:51:59.862Z,3.42
2023-04-13T11:54:49.238Z,3.20
2023-04-13T11:57:36.480Z,3.65
2023-04-13T12:00:24.756Z,3.78
2023-04-13T12:06:09.076Z,4.47
2023-04-13T12:09:10.080Z,6.00
2023-04-13T12:12:20.521Z,7.85
2023-04-13T12:15:18.477Z,5.57
2023-04-13T12:18:15.747Z,6.15
2023-04-13T12:23:54.274Z,3.40
2023-04-13T12:27:16.913Z,5.13
2023-04-13T12:29:49.052Z,6.03
2023-04-13T12:32:46.106Z,3.13
2023-04-13T12:35:32.072Z,4.22
2023-04-13T12:38:18.232Z,4.88
2023-04-13T12:41:08.527Z,3.47
2023-04-13T12:43:54.754Z,4.60
2023-04-13T12:46:40.774Z,4.07
2023-04-13T12:49:30.019Z,3.55
2023-04-13T12:52:16.219Z,4.47
2023-04-13T12:55:02.435Z,3.78
2023-04-13T12:57:48.943Z,4.53
2023-04-13T13:00:36.939Z,5.90
2023-04-13T13:03:23.678Z,4.90
2023-04-13T13:06:09.710Z,4.70
2023-04-13T13:08:55.882Z,4.20
2023-04-13T13:11:42.104Z,3.35
2023-04-13T13:14:28.788Z,3.58
2023-04-13T13:17:14.782Z,6.18
2023-04-13T13:20:01.917Z,5.50
2023-04-13T13:22:49.077Z,3.80
2023-04-13T13:25:38.019Z,3.90
2023-04-13T13:28:25.016Z,5.60
2023-04-13T13:31:12.843Z,7.75
2023-04-13T14:35:40.783Z,9.93
2023-04-13T16:00:23.305Z,3.40
2023-04-13T16:03:19.893Z,5.00
2023-04-13T16:09:44.993Z,7.00
2023-04-13T16:16:11.271Z,5.00
2023-04-13T16:19:35.046Z,5.05
2023-04-13T16:22:30.330Z,5.07
2023-04-13T16:25:28.429Z,5.63
2023-04-13T16:34:58.542Z,5.47
2023-04-13T16:37:51.123Z,2.95
2023-04-13T16:40:46.504Z,3.30
2023-04-13T16:47:44.416Z,4.55
2023-04-13T16:51:28.150Z,3.30
2023-04-13T16:55:34.860Z,5.03
2023-04-13T16:59:06.078Z,3.72
2023-04-13T17:11:48.451Z,3.78
2023-04-13T17:22:27.790Z,3.50
2023-04-13T17:26:11.225Z,3.20
2023-04-13T17:35:40.970Z,4.28
2023-04-13T17:38:27.517Z,3.75
2023-04-13T17:45:33.859Z,4.80
2023-04-13T17:48:25.385Z,5.15
2023-04-13T17:59:54.250Z,4.53
2023-04-13T18:12:06.445Z,4.75
2023-04-13T18:14:53.036Z,4.97
2023-04-13T18:17:39.992Z,5.03
2023-04-13T18:20:26.832Z,5.30
2023-04-13T18:23:13.344Z,5.07
2023-04-13T18:26:02.230Z,5.18
2023-04-13T18:28:50.046Z,5.65
2023-04-13T18:31:36.614Z,5.47
2023-04-13T18:34:24.629Z,5.47
2023-04-13T18:37:12.705Z,5.35
2023-04-13T18:40:05.482Z,7.50
2023-04-13T18:43:01.322Z,7.38
2023-04-13T18:45:49.681Z,6.97
2023-04-13T18:48:36.144Z,6.60
2023-04-13T18:51:29.712Z,6.70
2023-04-13T18:54:33.214Z,7.00
2023-04-13T18:57:19.474Z,6.53
2023-04-13T19:00:11.931Z,6.15
2023-04-13T19:02:58.532Z,6.60
2023-04-13T19:05:45.780Z,6.35
2023-04-13T19:09:16.308Z,6.35
2023-04-13T19:13:23.944Z,6.47
2023-04-13T19:17:07.149Z,5.97
2023-04-13T19:20:10.470Z,5.50
2023-04-13T19:27:11.437Z,5.97
2023-04-13T19:30:11.646Z,6.82
2023-04-13T19:33:02.204Z,5.57
2023-04-13T19:36:20.477Z,5.30
2023-04-13T19:39:46.123Z,6.22
2023-04-13T19:42:40.870Z,6.57
2023-04-13T19:45:51.956Z,6.70
2023-04-13T19:52:07.581Z,6.68
2023-04-13T19:54:53.677Z,7.05
2023-04-13T19:57:43.379Z,7.75
2023-04-13T20:00:30.644Z,7.93
2023-04-13T20:03:20.622Z,7.93
2023-04-13T20:06:12.888Z,7.85
2023-04-13T20:09:13.250Z,8.77
2023-04-13T20:11:59.716Z,9.63
2023-04-13T20:14:47.234Z,11.38
2023-04-13T20:17:33.376Z,12.63
2023-04-13T20:20:29.141Z,7.68
2023-04-13T20:23:15.488Z,7.00
2023-04-13T20:26:05.571Z,5.57
2023-04-13T20:28:55.121Z,5.43
2023-04-13T20:31:42.011Z,5.45
2023-04-13T20:34:28.244Z,5.65
2023-04-13T20:37:18.504Z,6.85
2023-04-13T20:40:07.871Z,9.98
2023-04-13T20:43:00.390Z,8.77
2023-04-13T20:45:50.511Z,10.82
2023-04-13T20:51:33.297Z,8.32
2023-04-13T20:54:20.529Z,7.00
2023-04-13T20:57:06.956Z,6.50
2023-04-13T20:59:54.469Z,8.02
2023-04-13T21:02:42.358Z,6.70
2023-04-13T21:05:28.930Z,7.30
2023-04-13T21:08:16.799Z,7.28
2023-04-13T21:11:03.128Z,7.82
2023-04-13T21:13:49.351Z,7.45
2023-04-13T21:16:39.101Z,7.95
2023-04-13T21:19:25.951Z,7.43
2023-04-13T21:22:12.828Z,11.05
2023-04-13T21:24:59.183Z,8.35
2023-04-13T21:27:45.896Z,9.45
2023-04-13T21:30:32.130Z,8.73
2023-04-13T21:33:22.776Z,8.95
2023-04-13T21:39:04.374Z,8.27
2023-04-13T21:41:50.762Z,6.78
2023-04-13T21:44:37.254Z,7.22
2023-04-13T21:47:24.569Z,8.13
2023-04-13T21:50:11.243Z,8.35
2023-04-13T21:52:57.590Z,8.38
2023-04-13T21:55:43.910Z,7.60
2023-04-13T21:58:38.006Z,8.25
2023-04-13T22:01:24.534Z,7.72
2023-04-13T22:04:13.468Z,8.02
2023-04-13T22:07:00.006Z,8.57
2023-04-13T22:09:46.355Z,8.50
2023-04-13T22:12:33.879Z,10.68
2023-04-13T22:15:21.367Z,9.52
2023-04-13T22:18:07.841Z,10.02
2023-04-13T22:21:00.019Z,8.55
2023-04-13T22:23:49.416Z,9.50
2023-04-13T22:26:43.521Z,8.27
2023-04-13T22:29:30.556Z,7.70
2023-04-13T22:32:17.167Z,7.30
2023-04-13T22:35:19.031Z,7.07
2023-04-13T22:38:05.504Z,6.10
2023-04-13T22:40:52.166Z,5.65
2023-04-13T22:43:38.562Z,5.60
2023-04-13T22:46:28.122Z,6.03
2023-04-13T22:49:17.921Z,6.85
2023-04-13T22:52:04.814Z,6.65
2023-04-13T22:55:10.623Z,6.28
2023-04-13T22:57:56.919Z,6.18
2023-04-13T23:00:43.307Z,6.35
2023-04-13T23:03:29.827Z,6.53
2023-04-13T23:06:16.196Z,5.75
2023-04-13T23:09:02.956Z,5.32
2023-04-13T23:11:49.652Z,5.50
2023-04-13T23:14:35.976Z,4.90
2023-04-13T23:17:22.018Z,4.90
2023-04-13T23:20:08.686Z,5.45
2023-04-13T23:22:54.745Z,5.47
2023-04-13T23:25:44.063Z,6.28
2023-04-13T23:28:30.280Z,5.78
2023-04-13T23:31:16.507Z,5.25
2023-04-13T23:34:03.197Z,5.82
2023-04-13T23:36:52.963Z,5.93
2023-04-13T23:39:45.646Z,5.68
2023-04-13T23:42:32.334Z,5.22
2023-04-13T23:45:22.619Z,5.38
2023-04-13T23:48:09.014Z,6.00
2023-04-13T23:51:00.201Z,5.85
2023-04-13T23:53:54.069Z,6.50
2023-04-13T23:56:40.794Z,6.25
2023-04-13T23:59:26.890Z,5.57
